sensor_id;sensor_type;location;lat;lon;timestamp;temperature;humidity
1103;DHT22;538;42.654;23.376;2023-03-21T00:00:01;14.80;4.20
1103;DHT22;538;42.654;23.376;2023-03-21T00:02:28;14.90;4.20
1103;DHT22;538;42.654;23.376;2023-03-21T00:04:56;14.80;4.20
1103;DHT22;538;42.654;23.376;2023-03-21T00:09:52;14.80;4.50
1103;DHT22;538;42.654;23.376;2023-03-21T00:12:21;14.90;4.40
1103;DHT22;538;42.654;23.376;2023-03-21T00:14:48;14.80;4.20
1103;DHT22;538;42.654;23.376;2023-03-21T00:17:18;14.90;4.40
1103;DHT22;538;42.654;23.376;2023-03-21T00:19:47;14.70;4.40
1103;DHT22;538;42.654;23.376;2023-03-21T00:22:14;14.70;4.40
1103;DHT22;538;42.654;23.376;2023-03-21T00:27:08;14.60;4.40
1103;DHT22;538;42.654;23.376;2023-03-21T00:29:36;14.70;4.60
1103;DHT22;538;42.654;23.376;2023-03-21T00:32:04;14.60;4.40
1103;DHT22;538;42.654;23.376;2023-03-21T00:34:30;14.50;4.30
1103;DHT22;538;42.654;23.376;2023-03-21T00:36:58;14.40;4.70
1103;DHT22;538;42.654;23.376;2023-03-21T00:39:26;14.40;4.80
1103;DHT22;538;42.654;23.376;2023-03-21T00:41:53;14.30;5.20
1103;DHT22;538;42.654;23.376;2023-03-21T00:44:20;14.10;5.60
1103;DHT22;538;42.654;23.376;2023-03-21T00:46:50;13.80;6.00
1103;DHT22;538;42.654;23.376;2023-03-21T00:49:17;13.70;6.20
1103;DHT22;538;42.654;23.376;2023-03-21T00:51:45;13.60;6.50
1103;DHT22;538;42.654;23.376;2023-03-21T00:54:16;13.40;6.60
1103;DHT22;538;42.654;23.376;2023-03-21T00:56:43;13.40;7.00
1103;DHT22;538;42.654;23.376;2023-03-21T00:59:10;13.50;7.10
1103;DHT22;538;42.654;23.376;2023-03-21T01:01:37;13.40;7.00
1103;DHT22;538;42.654;23.376;2023-03-21T01:04:05;13.50;7.10
1103;DHT22;538;42.654;23.376;2023-03-21T01:06:38;13.40;7.20
1103;DHT22;538;42.654;23.376;2023-03-21T01:09:06;13.30;7.20
1103;DHT22;538;42.654;23.376;2023-03-21T01:11:35;13.40;7.30
1103;DHT22;538;42.654;23.376;2023-03-21T01:14:02;13.40;7.50
1103;DHT22;538;42.654;23.376;2023-03-21T01:16:29;13.30;7.30
1103;DHT22;538;42.654;23.376;2023-03-21T01:18:57;13.40;7.50
1103;DHT22;538;42.654;23.376;2023-03-21T01:21:25;13.20;7.40
1103;DHT22;538;42.654;23.376;2023-03-21T01:23:52;13.10;7.30
1103;DHT22;538;42.654;23.376;2023-03-21T01:26:20;13.20;6.90
1103;DHT22;538;42.654;23.376;2023-03-21T01:28:46;13.20;7.40
1103;DHT22;538;42.654;23.376;2023-03-21T01:31:15;13.00;7.30
1103;DHT22;538;42.654;23.376;2023-03-21T01:33:43;13.10;7.60
1103;DHT22;538;42.654;23.376;2023-03-21T01:36:14;13.20;7.90
1103;DHT22;538;42.654;23.376;2023-03-21T01:38:42;13.10;7.80
1103;DHT22;538;42.654;23.376;2023-03-21T01:41:17;13.00;7.80
1103;DHT22;538;42.654;23.376;2023-03-21T01:43:46;12.80;7.80
1103;DHT22;538;42.654;23.376;2023-03-21T01:46:28;12.70;8.00
1103;DHT22;538;42.654;23.376;2023-03-21T01:48:59;12.50;8.30
1103;DHT22;538;42.654;23.376;2023-03-21T01:51:29;12.60;8.60
1103;DHT22;538;42.654;23.376;2023-03-21T01:54:00;12.50;8.70
1103;DHT22;538;42.654;23.376;2023-03-21T01:56:28;12.40;9.00
1103;DHT22;538;42.654;23.376;2023-03-21T01:59:05;12.40;9.10
1103;DHT22;538;42.654;23.376;2023-03-21T02:01:34;12.40;9.30
1103;DHT22;538;42.654;23.376;2023-03-21T02:04:03;12.30;9.30
1103;DHT22;538;42.654;23.376;2023-03-21T02:06:39;12.20;9.30
1103;DHT22;538;42.654;23.376;2023-03-21T02:09:13;12.10;9.30
1103;DHT22;538;42.654;23.376;2023-03-21T02:11:40;12.10;9.70
1103;DHT22;538;42.654;23.376;2023-03-21T02:14:13;12.00;9.60
1103;DHT22;538;42.654;23.376;2023-03-21T02:16:53;11.90;9.60
1103;DHT22;538;42.654;23.376;2023-03-21T02:22:46;11.90;9.80
1103;DHT22;538;42.654;23.376;2023-03-21T02:28:25;12.00;10.00
1103;DHT22;538;42.654;23.376;2023-03-21T02:31:07;12.00;9.80
1103;DHT22;538;42.654;23.376;2023-03-21T02:36:59;12.10;9.70
1103;DHT22;538;42.654;23.376;2023-03-21T02:39:35;12.00;9.50
1103;DHT22;538;42.654;23.376;2023-03-21T02:42:09;12.00;9.70
1103;DHT22;538;42.654;23.376;2023-03-21T02:44:42;12.00;9.70
1103;DHT22;538;42.654;23.376;2023-03-21T02:47:13;12.00;10.00
1103;DHT22;538;42.654;23.376;2023-03-21T02:49:46;12.10;9.80
1103;DHT22;538;42.654;23.376;2023-03-21T02:52:20;12.30;9.80
1103;DHT22;538;42.654;23.376;2023-03-21T02:54:49;12.20;9.70
1103;DHT22;538;42.654;23.376;2023-03-21T02:57:17;12.30;9.60
1103;DHT22;538;42.654;23.376;2023-03-21T02:59:45;12.30;9.70
1103;DHT22;538;42.654;23.376;2023-03-21T03:02:13;12.30;9.80
1103;DHT22;538;42.654;23.376;2023-03-21T03:04:41;12.40;9.70
1103;DHT22;538;42.654;23.376;2023-03-21T03:07:20;12.20;9.40
1103;DHT22;538;42.654;23.376;2023-03-21T03:10:04;12.30;9.70
1103;DHT22;538;42.654;23.376;2023-03-21T03:12:40;12.30;9.60
1103;DHT22;538;42.654;23.376;2023-03-21T03:15:16;12.40;9.50
1103;DHT22;538;42.654;23.376;2023-03-21T03:17:50;12.40;9.50
1103;DHT22;538;42.654;23.376;2023-03-21T03:20:29;12.40;9.50
1103;DHT22;538;42.654;23.376;2023-03-21T03:23:05;12.30;9.40
1103;DHT22;538;42.654;23.376;2023-03-21T03:25:38;12.30;9.40
1103;DHT22;538;42.654;23.376;2023-03-21T03:28:06;12.30;9.60
1103;DHT22;538;42.654;23.376;2023-03-21T03:30:35;12.40;9.80
1103;DHT22;538;42.654;23.376;2023-03-21T03:33:05;12.30;9.70
1103;DHT22;538;42.654;23.376;2023-03-21T03:35:35;12.20;9.70
1103;DHT22;538;42.654;23.376;2023-03-21T03:38:05;12.20;9.70
1103;DHT22;538;42.654;23.376;2023-03-21T03:40:38;12.10;9.60
1103;DHT22;538;42.654;23.376;2023-03-21T03:43:09;12.10;9.90
1103;DHT22;538;42.654;23.376;2023-03-21T03:45:42;11.90;9.90
1103;DHT22;538;42.654;23.376;2023-03-21T03:48:15;12.00;9.70
1103;DHT22;538;42.654;23.376;2023-03-21T03:50:46;11.90;9.50
1103;DHT22;538;42.654;23.376;2023-03-21T03:53:19;11.80;9.90
1103;DHT22;538;42.654;23.376;2023-03-21T03:55:48;12.00;10.40
1103;DHT22;538;42.654;23.376;2023-03-21T03:58:17;11.60;10.30
1103;DHT22;538;42.654;23.376;2023-03-21T04:00:45;11.60;10.30
1103;DHT22;538;42.654;23.376;2023-03-21T04:05:40;11.50;10.40
1103;DHT22;538;42.654;23.376;2023-03-21T04:08:11;11.30;10.20
1103;DHT22;538;42.654;23.376;2023-03-21T04:10:40;11.30;10.10
1103;DHT22;538;42.654;23.376;2023-03-21T04:13:07;11.20;10.40
1103;DHT22;538;42.654;23.376;2023-03-21T04:15:34;11.00;10.40
1103;DHT22;538;42.654;23.376;2023-03-21T04:22:56;11.10;10.60
1103;DHT22;538;42.654;23.376;2023-03-21T04:27:54;11.30;10.70
1103;DHT22;538;42.654;23.376;2023-03-21T04:30:21;11.40;10.80
1103;DHT22;538;42.654;23.376;2023-03-21T04:32:50;11.40;10.70
1103;DHT22;538;42.654;23.376;2023-03-21T04:35:19;11.50;10.80
1103;DHT22;538;42.654;23.376;2023-03-21T04:37:46;11.50;10.70
1103;DHT22;538;42.654;23.376;2023-03-21T04:40:13;11.40;10.70
1103;DHT22;538;42.654;23.376;2023-03-21T04:42:42;11.50;10.70
1103;DHT22;538;42.654;23.376;2023-03-21T04:45:11;11.60;10.80
1103;DHT22;538;42.654;23.376;2023-03-21T04:47:39;11.60;10.90
1103;DHT22;538;42.654;23.376;2023-03-21T04:50:07;11.60;10.90
1103;DHT22;538;42.654;23.376;2023-03-21T04:52:34;11.80;10.60
1103;DHT22;538;42.654;23.376;2023-03-21T04:55:01;11.50;10.50
1103;DHT22;538;42.654;23.376;2023-03-21T04:57:28;11.60;10.30
1103;DHT22;538;42.654;23.376;2023-03-21T04:59:55;11.70;10.40
1103;DHT22;538;42.654;23.376;2023-03-21T05:02:24;11.70;10.50
1103;DHT22;538;42.654;23.376;2023-03-21T05:04:51;11.60;10.30
1103;DHT22;538;42.654;23.376;2023-03-21T05:09:51;11.80;10.50
1103;DHT22;538;42.654;23.376;2023-03-21T05:12:18;11.60;10.30
1103;DHT22;538;42.654;23.376;2023-03-21T05:14:45;11.60;10.30
1103;DHT22;538;42.654;23.376;2023-03-21T05:17:12;11.80;10.50
1103;DHT22;538;42.654;23.376;2023-03-21T05:19:51;11.70;10.60
1103;DHT22;538;42.654;23.376;2023-03-21T05:22:18;12.00;10.70
1103;DHT22;538;42.654;23.376;2023-03-21T05:24:45;12.00;10.60
1103;DHT22;538;42.654;23.376;2023-03-21T05:27:15;11.90;10.50
1103;DHT22;538;42.654;23.376;2023-03-21T05:29:59;11.80;10.10
1103;DHT22;538;42.654;23.376;2023-03-21T05:34:55;11.90;10.30
1103;DHT22;538;42.654;23.376;2023-03-21T05:37:23;11.90;10.50
1103;DHT22;538;42.654;23.376;2023-03-21T05:39:50;12.00;10.60
1103;DHT22;538;42.654;23.376;2023-03-21T05:44:44;11.90;10.50
1103;DHT22;538;42.654;23.376;2023-03-21T05:47:11;12.20;10.70
1103;DHT22;538;42.654;23.376;2023-03-21T05:49:39;12.30;10.60
1103;DHT22;538;42.654;23.376;2023-03-21T05:52:07;12.30;10.80
1103;DHT22;538;42.654;23.376;2023-03-21T05:57:02;12.30;10.10
1103;DHT22;538;42.654;23.376;2023-03-21T05:59:30;12.30;10.20
1103;DHT22;538;42.654;23.376;2023-03-21T06:01:56;12.20;10.50
1103;DHT22;538;42.654;23.376;2023-03-21T06:06:51;12.40;10.80
1103;DHT22;538;42.654;23.376;2023-03-21T06:09:21;12.30;10.60
1103;DHT22;538;42.654;23.376;2023-03-21T06:11:50;12.80;10.70
1103;DHT22;538;42.654;23.376;2023-03-21T06:14:18;12.70;10.60
1103;DHT22;538;42.654;23.376;2023-03-21T06:24:07;12.90;10.00
1103;DHT22;538;42.654;23.376;2023-03-21T06:26:36;13.30;9.40
1103;DHT22;538;42.654;23.376;2023-03-21T06:29:03;13.20;9.10
1103;DHT22;538;42.654;23.376;2023-03-21T06:31:30;13.30;8.90
1103;DHT22;538;42.654;23.376;2023-03-21T06:33:57;13.40;8.60
1103;DHT22;538;42.654;23.376;2023-03-21T06:36:25;13.60;8.50
1103;DHT22;538;42.654;23.376;2023-03-21T06:38:52;13.60;8.40
1103;DHT22;538;42.654;23.376;2023-03-21T06:43:48;13.70;8.30
1103;DHT22;538;42.654;23.376;2023-03-21T06:46:15;13.60;7.50
1103;DHT22;538;42.654;23.376;2023-03-21T06:51:11;13.90;7.40
1103;DHT22;538;42.654;23.376;2023-03-21T06:53:38;14.10;7.30
1103;DHT22;538;42.654;23.376;2023-03-21T07:01:03;14.50;7.50
1103;DHT22;538;42.654;23.376;2023-03-21T07:03:32;14.20;6.90
1103;DHT22;538;42.654;23.376;2023-03-21T07:06:03;14.70;6.70
1103;DHT22;538;42.654;23.376;2023-03-21T07:08:30;14.70;6.70
1103;DHT22;538;42.654;23.376;2023-03-21T07:13:24;14.90;6.80
1103;DHT22;538;42.654;23.376;2023-03-21T07:18:21;14.90;6.20
1103;DHT22;538;42.654;23.376;2023-03-21T07:20:50;15.00;6.10
1103;DHT22;538;42.654;23.376;2023-03-21T07:23:19;14.90;6.40
1103;DHT22;538;42.654;23.376;2023-03-21T07:25:46;15.20;6.90
1103;DHT22;538;42.654;23.376;2023-03-21T07:28:13;15.00;6.30
1103;DHT22;538;42.654;23.376;2023-03-21T07:30:41;15.30;6.50
1103;DHT22;538;42.654;23.376;2023-03-21T07:33:08;15.30;6.80
1103;DHT22;538;42.654;23.376;2023-03-21T07:35:37;15.30;6.90
1103;DHT22;538;42.654;23.376;2023-03-21T07:40:32;15.50;6.80
1103;DHT22;538;42.654;23.376;2023-03-21T07:42:59;15.60;6.50
1103;DHT22;538;42.654;23.376;2023-03-21T07:45:26;15.70;6.20
1103;DHT22;538;42.654;23.376;2023-03-21T07:52:49;15.70;6.60
1103;DHT22;538;42.654;23.376;2023-03-21T07:55:17;15.80;6.90
1103;DHT22;538;42.654;23.376;2023-03-21T07:57:44;16.00;6.80
1103;DHT22;538;42.654;23.376;2023-03-21T08:00:12;16.10;6.30
1103;DHT22;538;42.654;23.376;2023-03-21T08:02:48;16.00;5.80
1103;DHT22;538;42.654;23.376;2023-03-21T08:05:19;16.20;5.90
1103;DHT22;538;42.654;23.376;2023-03-21T08:07:48;16.10;5.80
1103;DHT22;538;42.654;23.376;2023-03-21T08:10:15;16.20;5.40
1103;DHT22;538;42.654;23.376;2023-03-21T08:15:11;16.10;5.00
1103;DHT22;538;42.654;23.376;2023-03-21T08:20:07;16.10;5.50
1103;DHT22;538;42.654;23.376;2023-03-21T08:22:37;16.10;5.80
1103;DHT22;538;42.654;23.376;2023-03-21T08:25:07;16.10;5.70
1103;DHT22;538;42.654;23.376;2023-03-21T08:30:03;16.40;5.80
1103;DHT22;538;42.654;23.376;2023-03-21T08:32:31;16.30;5.60
1103;DHT22;538;42.654;23.376;2023-03-21T08:37:27;16.40;5.80
1103;DHT22;538;42.654;23.376;2023-03-21T08:39:54;16.50;5.30
1103;DHT22;538;42.654;23.376;2023-03-21T08:42:22;16.60;5.20
1103;DHT22;538;42.654;23.376;2023-03-21T08:44:49;16.70;4.90
1103;DHT22;538;42.654;23.376;2023-03-21T08:47:17;16.80;4.90
1103;DHT22;538;42.654;23.376;2023-03-21T08:49:44;16.90;4.80
1103;DHT22;538;42.654;23.376;2023-03-21T08:52:11;16.80;4.50
1103;DHT22;538;42.654;23.376;2023-03-21T08:57:07;17.00;3.70
1103;DHT22;538;42.654;23.376;2023-03-21T08:59:36;17.10;4.00
1103;DHT22;538;42.654;23.376;2023-03-21T09:02:04;17.10;4.10
1103;DHT22;538;42.654;23.376;2023-03-21T09:04:31;17.20;3.80
1103;DHT22;538;42.654;23.376;2023-03-21T09:06:59;17.10;3.60
1103;DHT22;538;42.654;23.376;2023-03-21T09:09:29;17.30;3.70
1103;DHT22;538;42.654;23.376;2023-03-21T09:11:56;17.30;3.50
1103;DHT22;538;42.654;23.376;2023-03-21T09:14:23;17.30;2.70
1103;DHT22;538;42.654;23.376;2023-03-21T09:16:52;17.30;2.70
1103;DHT22;538;42.654;23.376;2023-03-21T09:19:19;17.20;2.00
1103;DHT22;538;42.654;23.376;2023-03-21T09:21:46;17.20;2.70
1103;DHT22;538;42.654;23.376;2023-03-21T09:24:13;17.30;2.70
1103;DHT22;538;42.654;23.376;2023-03-21T09:26:42;17.40;2.60
1103;DHT22;538;42.654;23.376;2023-03-21T09:29:10;17.30;2.70
1103;DHT22;538;42.654;23.376;2023-03-21T09:31:37;17.30;2.70
1103;DHT22;538;42.654;23.376;2023-03-21T09:34:05;17.50;3.00
1103;DHT22;538;42.654;23.376;2023-03-21T09:36:32;17.50;3.00
1103;DHT22;538;42.654;23.376;2023-03-21T09:39:00;17.70;3.00
1103;DHT22;538;42.654;23.376;2023-03-21T09:41:48;17.90;2.50
1103;DHT22;538;42.654;23.376;2023-03-21T09:44:32;17.90;2.30
1103;DHT22;538;42.654;23.376;2023-03-21T09:47:04;18.00;2.60
1103;DHT22;538;42.654;23.376;2023-03-21T09:49:43;18.10;2.60
1103;DHT22;538;42.654;23.376;2023-03-21T09:52:18;18.30;2.80
1103;DHT22;538;42.654;23.376;2023-03-21T09:54:46;18.40;2.60
1103;DHT22;538;42.654;23.376;2023-03-21T09:57:21;18.60;2.90
1103;DHT22;538;42.654;23.376;2023-03-21T09:59:51;18.60;1.80
1103;DHT22;538;42.654;23.376;2023-03-21T10:02:32;18.90;2.00
1103;DHT22;538;42.654;23.376;2023-03-21T10:05:11;18.90;1.70
1103;DHT22;538;42.654;23.376;2023-03-21T10:07:41;19.00;1.30
1103;DHT22;538;42.654;23.376;2023-03-21T10:10:15;18.90;1.00
1103;DHT22;538;42.654;23.376;2023-03-21T10:12:43;19.00;1.00
1103;DHT22;538;42.654;23.376;2023-03-21T10:15:15;19.20;1.00
1103;DHT22;538;42.654;23.376;2023-03-21T10:17:45;19.20;1.00
1103;DHT22;538;42.654;23.376;2023-03-21T10:20:17;19.50;1.10
1103;DHT22;538;42.654;23.376;2023-03-21T10:22:47;19.70;1.00
1103;DHT22;538;42.654;23.376;2023-03-21T10:25:18;19.90;1.00
1103;DHT22;538;42.654;23.376;2023-03-21T10:27:46;19.90;1.00
1103;DHT22;538;42.654;23.376;2023-03-21T10:30:25;20.20;1.00
1103;DHT22;538;42.654;23.376;2023-03-21T10:32:55;20.50;1.00
1103;DHT22;538;42.654;23.376;2023-03-21T10:35:24;20.70;1.00
1103;DHT22;538;42.654;23.376;2023-03-21T10:37:52;20.90;1.00
1103;DHT22;538;42.654;23.376;2023-03-21T10:40:19;21.30;1.00
1103;DHT22;538;42.654;23.376;2023-03-21T10:42:46;21.10;1.00
1103;DHT22;538;42.654;23.376;2023-03-21T10:45:14;21.60;1.00
1103;DHT22;538;42.654;23.376;2023-03-21T10:47:46;21.80;1.00
1103;DHT22;538;42.654;23.376;2023-03-21T10:50:16;21.80;1.00
1103;DHT22;538;42.654;23.376;2023-03-21T10:52:49;21.80;1.00
1103;DHT22;538;42.654;23.376;2023-03-21T10:55:20;21.80;1.00
1103;DHT22;538;42.654;23.376;2023-03-21T10:57:52;21.90;1.00
1103;DHT22;538;42.654;23.376;2023-03-21T11:00:25;21.90;1.00
1103;DHT22;538;42.654;23.376;2023-03-21T11:02:54;21.80;1.00
1103;DHT22;538;42.654;23.376;2023-03-21T11:05:24;21.90;1.00
1103;DHT22;538;42.654;23.376;2023-03-21T11:07:58;22.00;1.00
1103;DHT22;538;42.654;23.376;2023-03-21T11:10:29;22.00;1.00
1103;DHT22;538;42.654;23.376;2023-03-21T11:12:58;21.90;1.00
1103;DHT22;538;42.654;23.376;2023-03-21T11:15:29;21.90;1.00
1103;DHT22;538;42.654;23.376;2023-03-21T11:17:57;21.90;1.00
1103;DHT22;538;42.654;23.376;2023-03-21T11:20:25;21.90;1.00
1103;DHT22;538;42.654;23.376;2023-03-21T11:22:56;22.10;1.00
1103;DHT22;538;42.654;23.376;2023-03-21T11:25:31;22.00;1.00
1103;DHT22;538;42.654;23.376;2023-03-21T11:28:05;22.20;1.00
1103;DHT22;538;42.654;23.376;2023-03-21T11:30:32;22.40;1.00
1103;DHT22;538;42.654;23.376;2023-03-21T11:33:01;22.50;1.00
1103;DHT22;538;42.654;23.376;2023-03-21T11:35:33;22.70;1.00
1103;DHT22;538;42.654;23.376;2023-03-21T11:38:02;22.70;1.00
1103;DHT22;538;42.654;23.376;2023-03-21T11:40:30;22.80;1.00
1103;DHT22;538;42.654;23.376;2023-03-21T11:42:59;23.00;1.00
1103;DHT22;538;42.654;23.376;2023-03-21T11:45:28;23.10;1.00
1103;DHT22;538;42.654;23.376;2023-03-21T11:47:57;23.00;1.00
1103;DHT22;538;42.654;23.376;2023-03-21T11:50:29;23.10;1.00
1103;DHT22;538;42.654;23.376;2023-03-21T11:53:24;23.00;1.00
1103;DHT22;538;42.654;23.376;2023-03-21T11:56:01;23.10;1.00
1103;DHT22;538;42.654;23.376;2023-03-21T11:58:35;23.00;1.00
1103;DHT22;538;42.654;23.376;2023-03-21T12:01:11;22.80;1.00
1103;DHT22;538;42.654;23.376;2023-03-21T12:03:58;22.80;1.00
1103;DHT22;538;42.654;23.376;2023-03-21T12:06:33;23.00;1.00
1103;DHT22;538;42.654;23.376;2023-03-21T12:12:08;22.70;1.00
1103;DHT22;538;42.654;23.376;2023-03-21T12:14:46;22.60;1.00
1103;DHT22;538;42.654;23.376;2023-03-21T12:17:23;22.70;1.00
1103;DHT22;538;42.654;23.376;2023-03-21T12:20:16;22.60;1.00
1103;DHT22;538;42.654;23.376;2023-03-21T12:22:55;22.50;1.00
1103;DHT22;538;42.654;23.376;2023-03-21T12:25:32;22.50;1.00
1103;DHT22;538;42.654;23.376;2023-03-21T12:28:07;22.50;1.00
1103;DHT22;538;42.654;23.376;2023-03-21T12:30:50;22.40;1.00
1103;DHT22;538;42.654;23.376;2023-03-21T12:33:31;22.40;1.00
1103;DHT22;538;42.654;23.376;2023-03-21T12:36:23;22.30;1.00
1103;DHT22;538;42.654;23.376;2023-03-21T12:38:58;22.20;1.00
1103;DHT22;538;42.654;23.376;2023-03-21T12:41:33;22.10;1.00
1103;DHT22;538;42.654;23.376;2023-03-21T12:44:10;22.00;1.00
1103;DHT22;538;42.654;23.376;2023-03-21T12:46:42;22.00;1.00
1103;DHT22;538;42.654;23.376;2023-03-21T12:49:15;22.20;1.00
1103;DHT22;538;42.654;23.376;2023-03-21T12:51:46;22.10;1.00
1103;DHT22;538;42.654;23.376;2023-03-21T12:54:20;21.80;1.00
1103;DHT22;538;42.654;23.376;2023-03-21T12:56:55;21.80;1.00
1103;DHT22;538;42.654;23.376;2023-03-21T12:59:32;21.80;1.00
1103;DHT22;538;42.654;23.376;2023-03-21T13:02:14;21.80;1.00
1103;DHT22;538;42.654;23.376;2023-03-21T13:04:48;21.70;1.00
1103;DHT22;538;42.654;23.376;2023-03-21T13:07:20;21.80;1.00
1103;DHT22;538;42.654;23.376;2023-03-21T13:09:50;21.90;1.00
1103;DHT22;538;42.654;23.376;2023-03-21T13:12:42;21.80;1.00
1103;DHT22;538;42.654;23.376;2023-03-21T13:15:30;21.80;1.00
1103;DHT22;538;42.654;23.376;2023-03-21T13:18:05;21.70;1.00
1103;DHT22;538;42.654;23.376;2023-03-21T13:20:42;21.60;1.00
1103;DHT22;538;42.654;23.376;2023-03-21T13:23:11;21.50;1.00
1103;DHT22;538;42.654;23.376;2023-03-21T13:25:42;21.50;1.00
1103;DHT22;538;42.654;23.376;2023-03-21T13:28:18;21.30;1.00
1103;DHT22;538;42.654;23.376;2023-03-21T13:30:46;21.40;1.00
1103;DHT22;538;42.654;23.376;2023-03-21T13:33:15;21.30;1.00
1103;DHT22;538;42.654;23.376;2023-03-21T13:35:54;21.30;1.00
1103;DHT22;538;42.654;23.376;2023-03-21T13:38:25;21.30;1.00
1103;DHT22;538;42.654;23.376;2023-03-21T13:40:57;21.30;1.00
1103;DHT22;538;42.654;23.376;2023-03-21T13:43:38;21.30;1.00
1103;DHT22;538;42.654;23.376;2023-03-21T13:46:07;21.10;1.00
1103;DHT22;538;42.654;23.376;2023-03-21T13:48:43;21.10;1.00
1103;DHT22;538;42.654;23.376;2023-03-21T13:51:37;21.20;1.00
1103;DHT22;538;42.654;23.376;2023-03-21T13:54:18;21.10;1.00
1103;DHT22;538;42.654;23.376;2023-03-21T13:56:51;20.90;1.00
1103;DHT22;538;42.654;23.376;2023-03-21T13:59:36;20.80;1.00
1103;DHT22;538;42.654;23.376;2023-03-21T14:02:21;20.80;1.00
1103;DHT22;538;42.654;23.376;2023-03-21T14:04:58;20.60;1.00
1103;DHT22;538;42.654;23.376;2023-03-21T14:07:28;20.50;1.00
1103;DHT22;538;42.654;23.376;2023-03-21T14:09:58;20.60;1.00
1103;DHT22;538;42.654;23.376;2023-03-21T14:12:29;20.40;1.00
1103;DHT22;538;42.654;23.376;2023-03-21T14:15:03;20.40;1.00
1103;DHT22;538;42.654;23.376;2023-03-21T14:17:32;20.30;1.00
1103;DHT22;538;42.654;23.376;2023-03-21T14:20:01;20.20;1.00
1103;DHT22;538;42.654;23.376;2023-03-21T14:22:36;20.00;1.00
1103;DHT22;538;42.654;23.376;2023-03-21T14:25:05;19.80;1.00
1103;DHT22;538;42.654;23.376;2023-03-21T14:27:33;19.80;1.00
1103;DHT22;538;42.654;23.376;2023-03-21T14:30:04;19.80;1.00
1103;DHT22;538;42.654;23.376;2023-03-21T14:32:34;19.70;1.00
1103;DHT22;538;42.654;23.376;2023-03-21T14:35:02;19.50;1.00
1103;DHT22;538;42.654;23.376;2023-03-21T14:37:31;19.50;1.00
1103;DHT22;538;42.654;23.376;2023-03-21T14:40:00;19.40;1.00
1103;DHT22;538;42.654;23.376;2023-03-21T14:42:34;19.40;1.00
1103;DHT22;538;42.654;23.376;2023-03-21T14:45:13;19.30;1.00
1103;DHT22;538;42.654;23.376;2023-03-21T14:47:53;19.20;1.00
1103;DHT22;538;42.654;23.376;2023-03-21T14:50:21;19.10;1.00
1103;DHT22;538;42.654;23.376;2023-03-21T14:52:52;19.10;1.00
1103;DHT22;538;42.654;23.376;2023-03-21T14:55:19;19.10;1.00
1103;DHT22;538;42.654;23.376;2023-03-21T14:57:47;19.00;1.00
1103;DHT22;538;42.654;23.376;2023-03-21T15:00:21;19.10;1.00
1103;DHT22;538;42.654;23.376;2023-03-21T15:02:50;18.80;1.00
1103;DHT22;538;42.654;23.376;2023-03-21T15:05:23;18.90;1.00
1103;DHT22;538;42.654;23.376;2023-03-21T15:07:52;18.70;1.10
1103;DHT22;538;42.654;23.376;2023-03-21T15:10:20;18.80;1.30
1103;DHT22;538;42.654;23.376;2023-03-21T15:12:52;18.70;1.50
1103;DHT22;538;42.654;23.376;2023-03-21T15:15:21;18.60;1.50
1103;DHT22;538;42.654;23.376;2023-03-21T15:17:49;18.70;2.00
1103;DHT22;538;42.654;23.376;2023-03-21T15:20:21;18.70;2.40
1103;DHT22;538;42.654;23.376;2023-03-21T15:22:52;18.60;2.60
1103;DHT22;538;42.654;23.376;2023-03-21T15:25:24;18.50;2.80
1103;DHT22;538;42.654;23.376;2023-03-21T15:27:53;18.50;2.90
1103;DHT22;538;42.654;23.376;2023-03-21T15:30:24;18.50;2.90
1103;DHT22;538;42.654;23.376;2023-03-21T15:32:53;18.40;2.80
1103;DHT22;538;42.654;23.376;2023-03-21T15:35:24;18.30;2.80
1103;DHT22;538;42.654;23.376;2023-03-21T15:37:53;18.40;3.20
1103;DHT22;538;42.654;23.376;2023-03-21T15:40:23;18.30;3.20
1103;DHT22;538;42.654;23.376;2023-03-21T15:43:05;18.30;3.40
1103;DHT22;538;42.654;23.376;2023-03-21T15:45:45;18.30;3.60
1103;DHT22;538;42.654;23.376;2023-03-21T15:48:13;18.20;4.00
1103;DHT22;538;42.654;23.376;2023-03-21T15:50:45;18.10;4.00
1103;DHT22;538;42.654;23.376;2023-03-21T15:53:15;18.20;4.50
1103;DHT22;538;42.654;23.376;2023-03-21T15:55:45;18.00;3.30
1103;DHT22;538;42.654;23.376;2023-03-21T15:58:16;17.80;4.30
1103;DHT22;538;42.654;23.376;2023-03-21T16:00:49;17.70;5.00
1103;DHT22;538;42.654;23.376;2023-03-21T16:03:20;17.50;5.20
1103;DHT22;538;42.654;23.376;2023-03-21T16:06:14;17.40;5.80
1103;DHT22;538;42.654;23.376;2023-03-21T16:08:44;17.30;6.20
1103;DHT22;538;42.654;23.376;2023-03-21T16:11:16;17.30;6.50
1103;DHT22;538;42.654;23.376;2023-03-21T16:13:43;17.00;7.40
1103;DHT22;538;42.654;23.376;2023-03-21T16:16:16;17.00;7.90
1103;DHT22;538;42.654;23.376;2023-03-21T16:18:43;17.00;8.60
1103;DHT22;538;42.654;23.376;2023-03-21T16:21:11;16.60;9.40
1103;DHT22;538;42.654;23.376;2023-03-21T16:23:39;16.50;11.20
1103;DHT22;538;42.654;23.376;2023-03-21T16:26:10;16.20;12.80
1103;DHT22;538;42.654;23.376;2023-03-21T16:28:37;15.90;14.00
1103;DHT22;538;42.654;23.376;2023-03-21T16:31:04;15.70;16.40
1103;DHT22;538;42.654;23.376;2023-03-21T16:33:33;15.30;18.20
1103;DHT22;538;42.654;23.376;2023-03-21T16:36:00;15.00;20.40
1103;DHT22;538;42.654;23.376;2023-03-21T16:38:27;14.60;20.90
1103;DHT22;538;42.654;23.376;2023-03-21T16:40:54;14.40;22.90
1103;DHT22;538;42.654;23.376;2023-03-21T16:43:21;14.40;23.60
1103;DHT22;538;42.654;23.376;2023-03-21T16:45:48;14.20;24.40
1103;DHT22;538;42.654;23.376;2023-03-21T16:48:15;14.20;25.30
1103;DHT22;538;42.654;23.376;2023-03-21T16:50:46;14.20;25.00
1103;DHT22;538;42.654;23.376;2023-03-21T16:53:14;14.40;24.80
1103;DHT22;538;42.654;23.376;2023-03-21T16:55:41;14.30;25.00
1103;DHT22;538;42.654;23.376;2023-03-21T16:58:11;14.30;25.90
1103;DHT22;538;42.654;23.376;2023-03-21T17:00:42;14.30;26.00
1103;DHT22;538;42.654;23.376;2023-03-21T17:03:14;14.20;25.80
1103;DHT22;538;42.654;23.376;2023-03-21T17:05:43;14.30;26.30
1103;DHT22;538;42.654;23.376;2023-03-21T17:08:15;14.10;25.70
1103;DHT22;538;42.654;23.376;2023-03-21T17:10:43;14.10;26.00
1103;DHT22;538;42.654;23.376;2023-03-21T17:13:10;13.90;25.60
1103;DHT22;538;42.654;23.376;2023-03-21T17:15:37;13.90;26.20
1103;DHT22;538;42.654;23.376;2023-03-21T17:18:06;13.80;27.60
1103;DHT22;538;42.654;23.376;2023-03-21T17:20:34;14.00;28.00
1103;DHT22;538;42.654;23.376;2023-03-21T17:23:02;13.80;30.00
1103;DHT22;538;42.654;23.376;2023-03-21T17:25:31;13.90;30.70
1103;DHT22;538;42.654;23.376;2023-03-21T17:27:58;13.80;30.60
1103;DHT22;538;42.654;23.376;2023-03-21T17:30:27;14.00;30.40
1103;DHT22;538;42.654;23.376;2023-03-21T17:32:55;13.80;30.70
1103;DHT22;538;42.654;23.376;2023-03-21T17:35:23;14.00;31.10
1103;DHT22;538;42.654;23.376;2023-03-21T17:37:51;13.90;32.60
1103;DHT22;538;42.654;23.376;2023-03-21T17:40:20;13.80;32.20
1103;DHT22;538;42.654;23.376;2023-03-21T17:42:49;14.00;32.60
1103;DHT22;538;42.654;23.376;2023-03-21T17:45:17;13.70;33.70
1103;DHT22;538;42.654;23.376;2023-03-21T17:47:45;13.80;33.40
1103;DHT22;538;42.654;23.376;2023-03-21T17:50:15;13.80;34.50
1103;DHT22;538;42.654;23.376;2023-03-21T17:52:43;13.80;36.50
1103;DHT22;538;42.654;23.376;2023-03-21T17:55:11;13.80;37.10
1103;DHT22;538;42.654;23.376;2023-03-21T18:00:13;13.60;40.90